createdAt,value
2018-07-30T00:00:50.565Z,7.53
2018-07-30T00:03:18.966Z,7.53
2018-07-30T00:05:47.250Z,6.80
2018-07-30T00:08:15.474Z,7.03
2018-07-30T00:10:43.654Z,4.97
2018-07-30T00:13:11.934Z,8.87
2018-07-30T00:15:40.844Z,7.27
2018-07-30T00:18:09.451Z,7.30
2018-07-30T00:20:37.711Z,6.83
2018-07-30T00:23:05.925Z,7.13
2018-07-30T00:25:34.241Z,6.63
2018-07-30T00:28:02.458Z,7.50
2018-07-30T00:30:30.671Z,8.80
2018-07-30T00:32:58.994Z,6.73
2018-07-30T00:35:27.205Z,6.50
2018-07-30T00:37:55.770Z,9.33
2018-07-30T00:40:24.118Z,8.13
2018-07-30T00:42:52.382Z,6.70
2018-07-30T00:45:20.610Z,8.43
2018-07-30T00:47:49.399Z,6.80
2018-07-30T00:50:17.837Z,6.77
2018-07-30T00:52:46.095Z,6.63
2018-07-30T00:55:14.445Z,8.13
2018-07-30T00:57:42.708Z,7.60
2018-07-30T01:00:10.947Z,6.70
2018-07-30T01:02:39.938Z,6.40
2018-07-30T01:05:08.178Z,6.53
2018-07-30T01:07:36.483Z,6.63
2018-07-30T01:10:05.083Z,6.47
2018-07-30T01:12:33.853Z,10.87
2018-07-30T01:15:02.111Z,6.73
2018-07-30T01:17:30.404Z,6.80
2018-07-30T01:19:58.674Z,9.23
2018-07-30T01:22:26.866Z,6.13
2018-07-30T01:24:55.338Z,6.77
2018-07-30T01:27:23.581Z,6.83
2018-07-30T01:29:51.861Z,7.00
2018-07-30T01:32:20.077Z,8.17
2018-07-30T01:34:48.529Z,6.50
2018-07-30T01:37:16.756Z,10.47
2018-07-30T01:39:44.946Z,8.63
2018-07-30T01:42:13.126Z,6.43
2018-07-30T01:44:41.413Z,8.43
2018-07-30T01:47:09.904Z,6.43
2018-07-30T01:49:38.099Z,8.17
2018-07-30T01:52:06.922Z,6.90
2018-07-30T01:54:35.121Z,7.43
2018-07-30T01:57:03.382Z,8.20
2018-07-30T01:59:31.611Z,7.87
2018-07-30T02:01:59.804Z,6.33
2018-07-30T02:04:28.005Z,7.53
2018-07-30T02:06:56.752Z,9.30
2018-07-30T02:09:25.079Z,7.63
2018-07-30T02:11:53.286Z,8.53
2018-07-30T02:14:21.514Z,7.53
2018-07-30T02:16:49.754Z,8.73
2018-07-30T02:19:18.273Z,7.53
2018-07-30T02:21:46.845Z,11.93
2018-07-30T02:24:15.097Z,9.40
2018-07-30T02:26:43.305Z,8.77
2018-07-30T02:29:11.560Z,6.23
2018-07-30T02:31:40.950Z,7.23
2018-07-30T02:34:09.737Z,8.07
2018-07-30T02:36:37.950Z,10.50
2018-07-30T02:39:08.935Z,7.07
2018-07-30T02:41:37.121Z,7.40
2018-07-30T02:44:05.348Z,10.40
2018-07-30T02:46:33.703Z,7.33
2018-07-30T02:49:02.906Z,9.20
2018-07-30T02:51:31.165Z,6.90
2018-07-30T02:53:59.413Z,8.70
2018-07-30T02:56:27.633Z,6.70
2018-07-30T02:58:55.869Z,6.80
2018-07-30T03:01:24.150Z,7.83
2018-07-30T03:03:52.402Z,12.13
2018-07-30T03:06:20.599Z,10.57
2018-07-30T03:08:48.853Z,10.70
2018-07-30T03:11:17.158Z,8.70
2018-07-30T03:13:45.660Z,12.73
2018-07-30T03:16:14.024Z,12.83
2018-07-30T03:18:42.694Z,9.40
2018-07-30T03:21:11.035Z,8.93
2018-07-30T03:23:39.217Z,14.03
2018-07-30T03:26:07.413Z,8.67
2018-07-30T03:28:35.708Z,9.03
2018-07-30T03:31:04.149Z,13.63
2018-07-30T03:33:32.692Z,11.50
2018-07-30T03:36:00.965Z,8.53
2018-07-30T03:38:29.137Z,9.37
2018-07-30T03:40:57.485Z,11.27
2018-07-30T03:43:25.752Z,8.70
2018-07-30T03:45:53.965Z,10.90
2018-07-30T03:48:22.188Z,9.97
2018-07-30T03:50:50.405Z,9.20
2018-07-30T03:53:19.194Z,10.17
2018-07-30T03:55:47.482Z,10.40
2018-07-30T03:58:15.681Z,9.17
2018-07-30T04:00:43.876Z,8.60
2018-07-30T04:03:12.105Z,10.07
2018-07-30T04:05:40.518Z,11.57
2018-07-30T04:08:08.684Z,10.63
2018-07-30T04:10:36.967Z,10.87
2018-07-30T04:13:05.181Z,10.43
2018-07-30T04:15:33.444Z,12.90
2018-07-30T04:18:02.559Z,12.53
2018-07-30T04:20:30.744Z,10.83
2018-07-30T04:22:58.955Z,11.30
2018-07-30T04:25:27.189Z,9.73
2018-07-30T04:27:55.455Z,13.67
2018-07-30T04:30:23.741Z,12.20
2018-07-30T04:32:52.007Z,10.33
2018-07-30T04:35:20.179Z,13.70
2018-07-30T04:37:49.080Z,14.33
2018-07-30T04:40:17.914Z,10.80
2018-07-30T04:42:46.123Z,12.77
2018-07-30T04:45:15.943Z,12.73
2018-07-30T04:47:44.166Z,14.27
2018-07-30T04:50:12.459Z,9.73
2018-07-30T04:52:42.039Z,12.37
2018-07-30T04:55:10.250Z,11.63
2018-07-30T04:57:38.461Z,12.67
2018-07-30T05:00:07.314Z,14.37
2018-07-30T05:02:35.524Z,11.60
2018-07-30T05:05:04.245Z,12.03
2018-07-30T05:07:32.485Z,13.73
2018-07-30T05:10:00.721Z,11.43
2018-07-30T05:12:28.937Z,11.50
2018-07-30T05:14:57.163Z,11.77
2018-07-30T05:17:25.878Z,13.17
2018-07-30T05:19:54.158Z,13.40
2018-07-30T05:22:22.206Z,13.03
2018-07-30T05:24:50.378Z,12.03
2018-07-30T05:27:18.721Z,13.47
2018-07-30T05:29:46.916Z,13.77
2018-07-30T05:32:15.201Z,13.67
2018-07-30T05:34:43.391Z,14.30
2018-07-30T05:37:11.704Z,15.40
2018-07-30T05:39:40.690Z,17.57
2018-07-30T05:42:08.875Z,17.73
2018-07-30T05:44:37.093Z,11.30
2018-07-30T05:47:05.444Z,12.90
2018-07-30T05:49:33.991Z,11.03
2018-07-30T05:52:03.225Z,9.83
2018-07-30T05:54:31.427Z,13.90
2018-07-30T05:56:59.613Z,11.83
2018-07-30T05:59:27.911Z,12.43
2018-07-30T06:01:56.213Z,13.63
2018-07-30T06:04:24.581Z,15.20
2018-07-30T06:06:52.789Z,13.50
2018-07-30T06:09:20.987Z,10.13
2018-07-30T06:11:49.230Z,12.97
2018-07-30T06:14:17.606Z,13.20
2018-07-30T06:16:45.811Z,11.93
2018-07-30T06:19:14.017Z,11.70
2018-07-30T06:21:42.224Z,11.20
2018-07-30T06:24:10.528Z,11.67
2018-07-30T06:26:38.705Z,11.27
2018-07-30T06:29:07.079Z,12.13
2018-07-30T06:31:35.263Z,10.80
2018-07-30T06:34:03.651Z,11.30
2018-07-30T06:36:31.881Z,12.47
2018-07-30T06:39:00.075Z,12.87
2018-07-30T06:41:28.278Z,10.63
2018-07-30T06:43:56.609Z,10.17
2018-07-30T06:46:25.065Z,8.83
2018-07-30T06:48:53.533Z,9.13
2018-07-30T06:51:21.728Z,10.87
2018-07-30T06:53:49.939Z,9.77
2018-07-30T06:56:18.411Z,9.80
2018-07-30T06:58:46.624Z,8.53
2018-07-30T07:01:14.893Z,9.00
2018-07-30T07:03:43.089Z,7.87
2018-07-30T07:06:11.325Z,8.63
2018-07-30T07:08:40.186Z,8.17
2018-07-30T07:11:08.406Z,8.13
2018-07-30T07:13:36.602Z,8.43
2018-07-30T07:16:04.872Z,8.30
2018-07-30T07:18:33.289Z,10.53
2018-07-30T07:21:01.513Z,5.43
2018-07-30T07:23:29.685Z,8.53
2018-07-30T07:25:57.909Z,8.23
2018-07-30T07:28:26.133Z,8.47
2018-07-30T07:30:54.409Z,7.70
2018-07-30T07:33:22.625Z,6.83
2018-07-30T07:35:50.811Z,6.60
2018-07-30T07:38:19.339Z,6.90
2018-07-30T07:40:47.665Z,10.47
2018-07-30T07:43:15.878Z,9.47
2018-07-30T07:45:44.125Z,5.63
2018-07-30T07:48:12.337Z,6.87
2018-07-30T07:50:41.306Z,6.37
2018-07-30T07:53:09.403Z,6.83
2018-07-30T07:55:37.688Z,8.63
2018-07-30T07:58:05.964Z,5.13
2018-07-30T08:00:34.250Z,7.73
2018-07-30T08:03:02.457Z,10.93
2018-07-30T08:05:30.631Z,10.63
2018-07-30T08:07:58.817Z,6.30
2018-07-30T08:10:26.800Z,4.93
2018-07-30T08:12:55.105Z,8.20
2018-07-30T08:15:23.313Z,8.80
2018-07-30T08:17:51.501Z,6.37
2018-07-30T08:20:19.753Z,5.13
2018-07-30T08:22:48.230Z,6.67
2018-07-30T08:25:16.430Z,4.50
2018-07-30T08:27:44.614Z,5.40
2018-07-30T08:30:12.826Z,7.03
2018-07-30T08:32:41.119Z,6.73
2018-07-30T08:35:10.127Z,4.90
2018-07-30T08:37:38.281Z,5.00
2018-07-30T08:40:07.526Z,5.47
2018-07-30T08:42:35.702Z,5.83
2018-07-30T08:45:05.335Z,5.33
2018-07-30T08:47:33.619Z,6.27
2018-07-30T08:50:02.979Z,5.10
2018-07-30T08:52:31.176Z,5.50
2018-07-30T08:54:59.350Z,4.80
2018-07-30T08:57:27.569Z,5.47
2018-07-30T08:59:55.974Z,5.17
2018-07-30T09:02:24.395Z,4.40
2018-07-30T09:04:52.328Z,7.27
2018-07-30T09:07:20.558Z,4.47
2018-07-30T09:09:48.774Z,4.90
2018-07-30T09:12:17.045Z,4.60
2018-07-30T09:14:45.218Z,3.87
2018-07-30T09:17:13.413Z,4.17
2018-07-30T09:19:41.730Z,5.03
2018-07-30T09:22:09.955Z,6.90
2018-07-30T09:24:38.128Z,4.57
2018-07-30T09:27:06.331Z,4.23
2018-07-30T09:29:35.358Z,6.20
2018-07-30T09:32:04.917Z,5.53
2018-07-30T09:34:33.144Z,4.63
2018-07-30T09:37:01.474Z,4.53
2018-07-30T09:39:29.700Z,5.93
2018-07-30T09:41:57.858Z,5.10
2018-07-30T09:44:26.277Z,4.10
2018-07-30T09:46:54.481Z,7.17
2018-07-30T09:49:22.686Z,5.57
2018-07-30T09:51:50.877Z,4.50
2018-07-30T09:54:19.217Z,5.33
2018-07-30T09:56:47.463Z,5.03
2018-07-30T09:59:15.833Z,6.17
2018-07-30T10:01:44.030Z,4.40
2018-07-30T10:04:12.007Z,4.20
2018-07-30T10:06:40.227Z,4.87
2018-07-30T10:09:09.957Z,4.20
2018-07-30T10:11:38.104Z,3.73
2018-07-30T10:14:06.517Z,3.73
2018-07-30T10:16:34.729Z,4.47
2018-07-30T10:19:04.696Z,4.20
2018-07-30T10:21:32.931Z,4.03
2018-07-30T10:24:01.094Z,4.03
2018-07-30T10:26:29.261Z,5.37
2018-07-30T10:28:57.464Z,4.00
2018-07-30T10:31:25.749Z,4.10
2018-07-30T10:33:53.950Z,4.70
2018-07-30T10:36:22.153Z,3.90
2018-07-30T10:38:50.323Z,3.83
2018-07-30T10:41:19.534Z,4.00
2018-07-30T10:43:48.090Z,3.80
2018-07-30T10:46:16.308Z,4.73
2018-07-30T10:48:44.480Z,7.77
2018-07-30T10:51:12.701Z,4.50
2018-07-30T10:53:41.044Z,4.03
2018-07-30T10:56:09.214Z,4.17
2018-07-30T10:58:37.409Z,4.60
2018-07-30T11:01:05.741Z,4.67
2018-07-30T11:03:33.874Z,4.10
2018-07-30T11:06:02.090Z,4.17
2018-07-30T11:08:30.250Z,4.23
2018-07-30T11:10:58.225Z,4.63
2018-07-30T11:13:30.565Z,5.73
2018-07-30T11:15:58.758Z,4.50
2018-07-30T11:18:27.146Z,5.00
2018-07-30T11:20:55.345Z,5.60
2018-07-30T11:23:23.529Z,4.20
2018-07-30T11:25:51.855Z,5.60
2018-07-30T11:28:20.160Z,3.93
2018-07-30T11:30:48.970Z,3.87
2018-07-30T11:33:17.220Z,4.10
2018-07-30T11:35:45.462Z,3.93
2018-07-30T11:38:13.686Z,4.83
2018-07-30T11:40:42.032Z,4.00
2018-07-30T11:43:10.509Z,3.40
2018-07-30T11:45:38.713Z,3.87
2018-07-30T11:48:07.033Z,3.80
2018-07-30T11:50:35.213Z,3.90
2018-07-30T11:53:03.461Z,3.77
2018-07-30T11:55:31.775Z,3.70
2018-07-30T11:57:59.991Z,3.50
2018-07-30T12:00:28.221Z,3.97
2018-07-30T12:02:56.475Z,4.63
2018-07-30T12:05:25.500Z,3.33
2018-07-30T12:07:53.883Z,4.03
2018-07-30T12:10:22.117Z,4.00
2018-07-30T12:12:50.421Z,3.80
2018-07-30T12:15:19.317Z,3.73
2018-07-30T12:17:47.713Z,4.47
2018-07-30T12:20:15.908Z,3.77
2018-07-30T12:22:44.128Z,4.00
2018-07-30T12:25:12.416Z,3.33
2018-07-30T12:27:40.834Z,5.63
2018-07-30T12:30:09.094Z,4.27
2018-07-30T12:32:37.333Z,3.53
2018-07-30T12:35:05.523Z,3.40
2018-07-30T12:37:34.245Z,4.13
2018-07-30T12:40:02.568Z,3.40
2018-07-30T12:42:30.896Z,3.47
2018-07-30T12:44:59.132Z,2.83
2018-07-30T12:47:27.350Z,3.13
2018-07-30T12:49:55.553Z,9.27
2018-07-30T12:52:23.750Z,4.37
2018-07-30T12:54:52.166Z,3.57
2018-07-30T12:57:20.349Z,5.67
2018-07-30T12:59:49.406Z,3.60
2018-07-30T13:02:17.645Z,3.67
2018-07-30T13:04:47.898Z,3.97
2018-07-30T13:07:16.054Z,4.63
2018-07-30T13:09:44.016Z,4.70
2018-07-30T13:12:13.217Z,3.70
2018-07-30T13:14:42.105Z,4.27
2018-07-30T13:17:11.605Z,4.57
2018-07-30T13:19:39.818Z,5.57
2018-07-30T13:22:08.014Z,3.93
2018-07-30T13:24:36.276Z,3.80
2018-07-30T13:27:05.553Z,3.93
2018-07-30T13:29:34.073Z,4.50
2018-07-30T13:32:02.366Z,4.53
2018-07-30T13:34:30.765Z,3.90
2018-07-30T13:36:58.945Z,3.83
2018-07-30T13:39:27.279Z,6.87
2018-07-30T13:41:55.584Z,4.00
2018-07-30T13:44:23.861Z,6.17
2018-07-30T13:46:52.032Z,4.73
2018-07-30T13:49:20.342Z,3.53
2018-07-30T13:51:49.486Z,5.00
2018-07-30T13:54:18.032Z,5.17
2018-07-30T13:56:46.233Z,3.83
2018-07-30T13:59:14.424Z,3.67
2018-07-30T14:01:42.650Z,4.40
2018-07-30T14:04:11.495Z,4.67
2018-07-30T14:06:39.741Z,3.97
2018-07-30T14:09:10.402Z,3.50
2018-07-30T14:11:38.658Z,4.90
2018-07-30T14:14:07.299Z,3.60
2018-07-30T14:16:35.540Z,4.00
2018-07-30T14:19:04.219Z,4.00
2018-07-30T14:21:32.605Z,9.97
2018-07-30T14:24:00.844Z,3.73
2018-07-30T14:26:29.109Z,5.13
2018-07-30T14:28:57.453Z,4.00
2018-07-30T14:31:25.655Z,3.77
2018-07-30T14:33:53.877Z,3.90
2018-07-30T14:36:22.129Z,4.83
2018-07-30T14:38:50.329Z,3.47
2018-07-30T14:41:19.180Z,4.70
2018-07-30T14:43:47.594Z,3.43
2018-07-30T14:46:15.809Z,5.47
2018-07-30T14:48:44.183Z,3.93
2018-07-30T14:51:12.717Z,4.00
2018-07-30T14:53:40.952Z,5.00
2018-07-30T14:56:09.221Z,4.40
2018-07-30T14:58:37.453Z,3.47
2018-07-30T15:01:06.321Z,5.93
2018-07-30T15:03:34.754Z,4.43
2018-07-30T15:06:03.086Z,4.30
2018-07-30T15:08:31.685Z,4.30
2018-07-30T15:10:59.902Z,4.47
2018-07-30T15:13:28.153Z,4.10
2018-07-30T15:15:57.629Z,4.30
2018-07-30T15:18:25.901Z,3.90
2018-07-30T15:20:54.112Z,5.27
2018-07-30T15:23:22.335Z,4.07
2018-07-30T15:25:50.605Z,4.07
2018-07-30T15:28:19.116Z,3.90
2018-07-30T15:30:47.398Z,5.13
2018-07-30T15:33:15.640Z,4.43
2018-07-30T15:35:43.896Z,7.00
2018-07-30T15:38:12.157Z,6.03
2018-07-30T15:40:40.523Z,3.70
2018-07-30T15:43:09.339Z,4.27
2018-07-30T15:45:37.529Z,4.30
2018-07-30T15:48:05.743Z,4.57
2018-07-30T15:50:34.035Z,4.93
2018-07-30T15:53:02.365Z,4.60
2018-07-30T15:55:31.409Z,4.27
2018-07-30T15:57:59.750Z,5.13
2018-07-30T16:00:28.086Z,6.70
2018-07-30T16:02:56.868Z,4.10
2018-07-30T16:05:25.237Z,4.37
2018-07-30T16:07:53.684Z,3.80
2018-07-30T16:10:21.921Z,4.20
2018-07-30T16:12:50.165Z,4.43
2018-07-30T16:15:18.650Z,6.93
2018-07-30T16:17:46.935Z,5.57
2018-07-30T16:20:15.257Z,4.40
2018-07-30T16:22:43.540Z,5.63
2018-07-30T16:25:11.636Z,4.50
2018-07-30T16:27:40.195Z,5.03
2018-07-30T16:30:09.214Z,4.33
2018-07-30T16:32:37.474Z,5.97
2018-07-30T16:35:06.566Z,4.23
2018-07-30T16:37:34.916Z,4.50
2018-07-30T16:40:03.288Z,4.17
2018-07-30T16:42:31.644Z,6.07
2018-07-30T16:44:59.920Z,22.17
2018-07-30T16:47:28.682Z,4.73
2018-07-30T16:49:57.383Z,4.27
2018-07-30T16:52:25.725Z,4.40
2018-07-30T16:54:54.532Z,4.27
2018-07-30T16:57:22.833Z,7.27
2018-07-30T16:59:51.140Z,4.63
2018-07-30T17:02:21.126Z,4.50
2018-07-30T17:04:49.446Z,4.90
2018-07-30T17:07:17.706Z,5.27
2018-07-30T17:09:45.948Z,4.80
2018-07-30T17:12:14.182Z,5.73
2018-07-30T17:14:42.538Z,5.10
2018-07-30T17:17:10.758Z,6.63
2018-07-30T17:19:38.982Z,4.20
2018-07-30T17:22:07.162Z,4.27
2018-07-30T17:24:35.486Z,5.53
2018-07-30T17:27:03.462Z,4.97
2018-07-30T17:29:31.683Z,4.30
2018-07-30T17:31:59.885Z,5.80
2018-07-30T17:34:28.269Z,4.57
2018-07-30T17:36:56.607Z,4.93
2018-07-30T17:39:24.933Z,4.20
2018-07-30T17:41:53.129Z,5.87
2018-07-30T17:44:21.368Z,6.47
2018-07-30T17:46:49.710Z,7.07
2018-07-30T17:49:17.909Z,4.27
2018-07-30T17:51:46.130Z,4.43
2018-07-30T17:54:14.333Z,5.60
2018-07-30T17:56:42.581Z,4.80
2018-07-30T17:59:10.822Z,5.37
2018-07-30T18:01:39.068Z,4.57
2018-07-30T18:04:07.469Z,4.30
2018-07-30T18:06:35.717Z,5.97
2018-07-30T18:09:05.214Z,5.20
2018-07-30T18:11:33.538Z,4.23
2018-07-30T18:14:01.732Z,4.77
2018-07-30T18:16:29.783Z,6.83
2018-07-30T18:18:58.303Z,5.50
2018-07-30T18:21:26.695Z,6.03
2018-07-30T18:23:55.019Z,5.53
2018-07-30T18:26:23.297Z,4.67
2018-07-30T18:28:51.510Z,7.50
2018-07-30T18:31:19.848Z,4.40
2018-07-30T18:33:48.175Z,5.73
2018-07-30T18:36:16.374Z,4.90
2018-07-30T18:38:44.577Z,5.67
2018-07-30T18:41:13.174Z,5.73
2018-07-30T18:43:41.629Z,4.73
2018-07-30T18:46:09.908Z,4.33
2018-07-30T18:48:38.192Z,4.33
2018-07-30T18:51:06.822Z,4.20
2018-07-30T18:53:35.213Z,3.90
2018-07-30T18:56:03.413Z,4.37
2018-07-30T18:58:31.617Z,4.00
2018-07-30T19:00:59.822Z,3.97
2018-07-30T19:03:28.064Z,4.93
2018-07-30T19:05:56.417Z,4.97
2018-07-30T19:08:24.754Z,4.60
2018-07-30T19:10:53.078Z,5.03
2018-07-30T19:13:21.269Z,6.57
2018-07-30T19:15:49.606Z,5.50
2018-07-30T19:18:17.949Z,6.73
2018-07-30T19:20:46.172Z,5.30
2018-07-30T19:23:14.361Z,4.03
2018-07-30T19:25:42.739Z,5.43
2018-07-30T19:28:11.017Z,5.03
2018-07-30T19:30:39.126Z,4.83
2018-07-30T19:33:07.366Z,6.33
2018-07-30T19:35:35.630Z,4.63
2018-07-30T19:38:04.071Z,6.27
2018-07-30T19:40:32.418Z,5.27
2018-07-30T19:43:00.701Z,4.00
2018-07-30T19:45:28.945Z,5.23
2018-07-30T19:47:57.185Z,4.10
2018-07-30T19:50:25.573Z,4.17
2018-07-30T19:52:53.858Z,4.60
2018-07-30T19:55:22.106Z,4.10
2018-07-30T19:57:50.393Z,4.87
2018-07-30T20:00:18.481Z,4.07
2018-07-30T20:02:46.696Z,6.63
2018-07-30T20:05:14.902Z,5.07
2018-07-30T20:07:43.171Z,5.77
2018-07-30T20:10:11.396Z,6.40
2018-07-30T20:12:39.387Z,4.43
2018-07-30T20:15:08.077Z,4.77
2018-07-30T20:17:36.341Z,4.40
2018-07-30T20:20:06.129Z,6.47
2018-07-30T20:22:34.369Z,5.73
2018-07-30T20:25:02.617Z,4.63
2018-07-30T20:27:30.838Z,7.10
2018-07-30T20:29:59.091Z,4.33
2018-07-30T20:32:27.348Z,4.10
2018-07-30T20:34:55.798Z,6.00
2018-07-30T20:37:23.780Z,4.13
2018-07-30T20:39:51.848Z,7.10
2018-07-30T20:42:20.160Z,6.00
2018-07-30T20:44:48.390Z,4.43
2018-07-30T20:47:16.610Z,6.30
2018-07-30T20:49:44.821Z,4.33
2018-07-30T20:52:13.009Z,4.60
2018-07-30T20:54:41.252Z,4.17
2018-07-30T20:57:09.462Z,4.33
2018-07-30T20:59:37.653Z,4.60
2018-07-30T21:02:06.305Z,6.10
2018-07-30T21:04:34.621Z,5.07
2018-07-30T21:07:02.962Z,3.83
2018-07-30T21:09:31.145Z,5.83
2018-07-30T21:11:59.328Z,4.63
2018-07-30T21:14:27.650Z,6.07
2018-07-30T21:16:55.860Z,4.53
2018-07-30T21:19:24.048Z,4.17
2018-07-30T21:21:52.646Z,4.60
2018-07-30T21:24:20.824Z,4.83
2018-07-30T21:26:49.090Z,5.60
2018-07-30T21:29:17.266Z,5.37
2018-07-30T21:31:45.649Z,5.40
2018-07-30T21:34:13.912Z,4.37
2018-07-30T21:36:42.177Z,4.73
2018-07-30T21:39:12.469Z,5.03
2018-07-30T21:41:41.197Z,4.67
2018-07-30T21:44:10.446Z,6.67
2018-07-30T21:46:39.640Z,4.70
2018-07-30T21:49:07.869Z,4.80
2018-07-30T21:51:36.119Z,5.10
2018-07-30T21:54:05.021Z,5.50
2018-07-30T21:56:34.372Z,5.27
2018-07-30T21:59:02.930Z,5.27
2018-07-30T22:01:31.179Z,6.80
2018-07-30T22:03:59.370Z,6.17
2018-07-30T22:06:27.723Z,6.77
2018-07-30T22:08:55.917Z,6.33
2018-07-30T22:11:24.125Z,5.57
2018-07-30T22:13:52.321Z,5.17
2018-07-30T22:16:20.525Z,6.60
2018-07-30T22:18:48.849Z,7.93
2018-07-30T22:21:17.045Z,7.07
2018-07-30T22:23:45.037Z,6.83
2018-07-30T22:26:13.234Z,10.07
2018-07-30T22:28:41.989Z,5.80
2018-07-30T22:31:10.198Z,10.27
2018-07-30T22:33:38.403Z,7.70
2018-07-30T22:36:06.603Z,8.37
2018-07-30T22:38:35.874Z,6.50
2018-07-30T22:41:04.195Z,6.03
2018-07-30T22:43:32.403Z,6.77
2018-07-30T22:46:01.046Z,7.80
2018-07-30T22:48:29.248Z,5.80
2018-07-30T22:50:57.610Z,6.20
2018-07-30T22:53:25.825Z,10.40
2018-07-30T22:55:54.024Z,7.10
2018-07-30T22:58:22.274Z,6.53
2018-07-30T23:00:50.531Z,7.47
2018-07-30T23:03:18.748Z,5.77
2018-07-30T23:05:46.973Z,6.60
2018-07-30T23:08:15.193Z,7.17
2018-07-30T23:10:43.417Z,7.93
2018-07-30T23:13:12.338Z,5.20
2018-07-30T23:15:40.569Z,8.47
2018-07-30T23:18:09.189Z,9.10
2018-07-30T23:20:37.538Z,8.27
2018-07-30T23:23:05.790Z,7.83
2018-07-30T23:25:34.182Z,6.37
2018-07-30T23:28:02.150Z,5.20
2018-07-30T23:30:30.345Z,8.67
2018-07-30T23:32:58.531Z,7.40
2018-07-30T23:35:27.682Z,7.67
2018-07-30T23:37:55.905Z,9.23
2018-07-30T23:40:24.410Z,8.23
2018-07-30T23:42:52.693Z,6.10
2018-07-30T23:45:20.908Z,5.87
2018-07-30T23:47:49.477Z,7.27
2018-07-30T23:50:17.751Z,8.27
2018-07-30T23:52:45.953Z,6.40
2018-07-30T23:55:14.166Z,6.17
2018-07-30T23:57:43.436Z,9.90
